Time;durP1;ratioP1;P1;durP2;ratioP2;P2;SDS_P1;SDS_P2;PMS_P1;PMS_P2;Temp;Humidity;BMP_temperature;BMP_pressure;BME280_temperature;BME280_humidity;BME280_pressure;Samples;Min_cycle;Max_cycle;Signal;HPM_P1;HPM_P2
2021/03/10 00:00:19;;;;;;;19.20;12.57;;;;;;;;;;5011439;28;21109;-89
2021/03/10 00:03:25;;;;;;;16.10;10.77;;;;;;;;;;5030716;28;20592;-89
2021/03/10 00:06:30;;;;;;;18.33;12.03;;;;;;;;;;5019728;28;20933;-89
2021/03/10 00:09:34;;;;;;;18.60;12.33;;;;;;;;;;5030988;28;20566;-89
2021/03/10 00:12:39;;;;;;;20.50;13.43;;;;;;;;;;5031086;28;20580;-89
2021/03/10 00:15:43;;;;;;;19.73;13.70;;;;;;;;;;5019751;28;20633;-89
2021/03/10 00:18:48;;;;;;;20.77;13.77;;;;;;;;;;5042206;28;21132;-90
2021/03/10 00:21:52;;;;;;;18.23;12.30;;;;;;;;;;5042198;28;20617;-89
2021/03/10 00:24:56;;;;;;;18.30;12.10;;;;;;;;;;5030812;28;20629;-90
2021/03/10 00:28:07;;;;;;;20.20;13.33;;;;;;;;;;5031698;28;20916;-89
2021/03/10 00:31:11;;;;;;;20.70;13.63;;;;;;;;;;5030788;28;21100;-89
2021/03/10 00:34:18;;;;;;;19.73;13.43;;;;;;;;;;5031259;28;20693;-89
2021/03/10 00:37:24;;;;;;;20.67;13.53;;;;;;;;;;5019341;28;20614;-89
2021/03/10 00:40:28;;;;;;;23.40;13.90;;;;;;;;;;5019229;28;20961;-89
2021/03/10 00:43:38;;;;;;;19.10;13.27;;;;;;;;;;5031107;28;20605;-89
2021/03/10 00:46:43;;;;;;;22.60;14.30;;;;;;;;;;5041679;28;20563;-89
2021/03/10 00:49:47;;;;;;;22.87;14.83;;;;;;;;;;5040970;28;20558;-90
2021/03/10 00:52:52;;;;;;;23.63;15.40;;;;;;;;;;4999302;28;20610;-89
2021/03/10 00:55:56;;;;;;;20.87;14.00;;;;;;;;;;5010255;28;20642;-89
2021/03/10 00:59:01;;;;;;;20.30;14.37;;;;;;;;;;5010469;28;20571;-89
2021/03/10 01:02:05;;;;;;;21.37;14.87;;;;;;;;;;5010146;28;20605;-89
2021/03/10 01:05:10;;;;;;;24.13;15.47;;;;;;;;;;5010764;28;20633;-89
2021/03/10 01:08:50;;;;;;;23.60;15.27;;;;;;;;;;5021570;28;20922;-89
2021/03/10 01:13:12;;;;;;;27.07;17.07;;;;;;;;;;5031613;28;20611;-89
2021/03/10 01:16:43;;;;;;;27.40;17.87;;;;;;;;;;5028534;28;21011;-89
2021/03/10 01:20:00;;;;;;;27.23;17.90;;;;;;;;;;5022684;28;20568;-89
2021/03/10 01:23:05;;;;;;;29.13;18.73;;;;;;;;;;4999198;28;20971;-89
2021/03/10 01:26:49;;;;;;;28.67;18.70;;;;;;;;;;4998984;28;20638;-86
2021/03/10 01:30:24;;;;;;;29.80;19.00;;;;;;;;;;5014129;28;21012;-87
2021/03/10 01:38:20;;;;;;;30.03;19.10;;;;;;;;;;5053014;28;20554;-88
2021/03/10 01:41:26;;;;;;;28.83;19.23;;;;;;;;;;5029761;28;21009;-88
2021/03/10 01:44:32;;;;;;;32.53;20.37;;;;;;;;;;5040613;28;20661;-88
2021/03/10 01:47:42;;;;;;;35.87;21.00;;;;;;;;;;5015074;28;20603;-87
2021/03/10 01:50:46;;;;;;;32.50;21.70;;;;;;;;;;4998772;28;20539;-88
2021/03/10 01:53:50;;;;;;;32.90;19.70;;;;;;;;;;5021002;28;20618;-88
2021/03/10 01:56:55;;;;;;;32.53;20.37;;;;;;;;;;5035492;28;20607;-89
2021/03/10 01:59:59;;;;;;;32.87;20.17;;;;;;;;;;5030508;28;20565;-89
2021/03/10 02:03:03;;;;;;;32.30;21.40;;;;;;;;;;5044622;28;20605;-88
2021/03/10 02:06:10;;;;;;;32.47;20.33;;;;;;;;;;5021888;28;20645;-88
2021/03/10 02:13:16;;;;;;;34.60;22.30;;;;;;;;;;5015439;28;20679;-89
2021/03/10 02:17:00;;;;;;;33.00;21.47;;;;;;;;;;5021746;28;20601;-88
2021/03/10 02:20:32;;;;;;;33.20;21.57;;;;;;;;;;5026411;28;20558;-88
2021/03/10 02:23:57;;;;;;;30.10;20.47;;;;;;;;;;5044392;28;20609;-89
2021/03/10 02:27:31;;;;;;;33.87;21.43;;;;;;;;;;5032804;28;20562;-89
2021/03/10 02:31:44;;;;;;;35.43;22.10;;;;;;;;;;5044426;28;20547;-89
2021/03/10 02:34:48;;;;;;;30.03;20.27;;;;;;;;;;5031598;28;20642;-88
2021/03/10 02:38:06;;;;;;;32.70;21.77;;;;;;;;;;5024061;28;20563;-88
2021/03/10 02:41:11;;;;;;;35.77;23.00;;;;;;;;;;5013102;28;20556;-89
2021/03/10 02:44:18;;;;;;;36.03;23.43;;;;;;;;;;5024243;28;20628;-89
2021/03/10 02:47:25;;;;;;;33.20;21.60;;;;;;;;;;5035291;28;20558;-89
2021/03/10 02:50:30;;;;;;;39.00;24.83;;;;;;;;;;5024033;28;20563;-89
2021/03/10 02:53:39;;;;;;;35.00;22.17;;;;;;;;;;5023834;28;20615;-89
2021/03/10 02:56:43;;;;;;;34.10;22.43;;;;;;;;;;5023963;28;20567;-89
2021/03/10 02:59:51;;;;;;;36.73;22.27;;;;;;;;;;5023670;28;20571;-89
2021/03/10 03:03:00;;;;;;;35.37;23.13;;;;;;;;;;5012359;28;20649;-89
2021/03/10 03:06:06;;;;;;;39.33;23.30;;;;;;;;;;5012314;28;20642;-89
2021/03/10 03:09:25;;;;;;;35.60;23.33;;;;;;;;;;5024249;28;20559;-88
2021/03/10 03:12:30;;;;;;;37.73;23.70;;;;;;;;;;5011604;28;20553;-89
2021/03/10 03:15:36;;;;;;;36.00;23.37;;;;;;;;;;5001136;28;20637;-89
2021/03/10 03:19:05;;;;;;;37.60;23.50;;;;;;;;;;5018081;28;20931;-89
2021/03/10 03:22:10;;;;;;;31.83;22.10;;;;;;;;;;5023064;28;20555;-88
2021/03/10 03:25:22;;;;;;;36.77;23.73;;;;;;;;;;5012489;28;20977;-89
2021/03/10 03:28:33;;;;;;;40.17;24.43;;;;;;;;;;5012283;28;21170;-89
2021/03/10 03:31:38;;;;;;;38.73;25.07;;;;;;;;;;5023215;28;20626;-89
2021/03/10 03:34:42;;;;;;;39.43;25.20;;;;;;;;;;5011795;28;21241;-88
2021/03/10 03:37:49;;;;;;;36.83;24.40;;;;;;;;;;5023328;28;20549;-89
2021/03/10 03:41:12;;;;;;;39.03;25.00;;;;;;;;;;5033262;28;20598;-89
2021/03/10 03:44:32;;;;;;;38.30;24.10;;;;;;;;;;5042582;28;20668;-89
2021/03/10 03:47:51;;;;;;;40.13;25.23;;;;;;;;;;5012765;28;20610;-89
2021/03/10 03:51:22;;;;;;;40.80;26.60;;;;;;;;;;5034188;28;20563;-89
2021/03/10 03:54:32;;;;;;;42.87;26.77;;;;;;;;;;5023925;28;20657;-89
2021/03/10 03:57:48;;;;;;;45.07;27.00;;;;;;;;;;5023869;28;20573;-89
2021/03/10 04:00:54;;;;;;;42.47;26.80;;;;;;;;;;5018520;28;20619;-89
2021/03/10 04:04:02;;;;;;;46.40;27.27;;;;;;;;;;5019889;28;20610;-89
2021/03/10 04:07:11;;;;;;;42.67;27.20;;;;;;;;;;5011555;28;20567;-89
2021/03/10 04:10:28;;;;;;;43.60;27.13;;;;;;;;;;5023036;28;20612;-88
2021/03/10 04:13:39;;;;;;;47.17;27.57;;;;;;;;;;5033657;28;20575;-89
2021/03/10 04:16:47;;;;;;;44.63;29.23;;;;;;;;;;5012135;28;20545;-89
2021/03/10 04:19:57;;;;;;;45.80;29.77;;;;;;;;;;4989065;28;20557;-89
2021/03/10 04:23:13;;;;;;;44.37;27.20;;;;;;;;;;5034097;28;20946;-89
2021/03/10 04:26:26;;;;;;;51.27;29.77;;;;;;;;;;5001389;28;20567;-89
2021/03/10 04:29:36;;;;;;;47.17;29.47;;;;;;;;;;5011235;28;20555;-89
2021/03/10 04:32:45;;;;;;;46.63;27.37;;;;;;;;;;4999911;28;21129;-89
2021/03/10 04:36:14;;;;;;;46.23;28.60;;;;;;;;;;5004655;28;20630;-89
2021/03/10 04:39:32;;;;;;;42.97;27.83;;;;;;;;;;5023133;28;20559;-89
2021/03/10 04:43:06;;;;;;;46.63;29.43;;;;;;;;;;5022124;28;20922;-89
2021/03/10 04:46:13;;;;;;;48.23;29.17;;;;;;;;;;5089847;22;20705;-71
2021/03/10 04:49:17;;;;;;;44.80;28.60;;;;;;;;;;5072783;28;20626;-73
2021/03/10 04:52:21;;;;;;;47.77;28.67;;;;;;;;;;5051763;28;20630;-72
2021/03/10 04:55:26;;;;;;;45.33;29.83;;;;;;;;;;5053377;28;20606;-72
2021/03/10 04:58:30;;;;;;;50.17;30.33;;;;;;;;;;5052868;28;20562;-72
2021/03/10 05:01:34;;;;;;;42.87;27.97;;;;;;;;;;5046774;28;20653;-72
2021/03/10 05:04:39;;;;;;;45.90;29.30;;;;;;;;;;5021249;28;20587;-73
2021/03/10 05:07:43;;;;;;;45.03;29.13;;;;;;;;;;5025786;28;20593;-73
2021/03/10 05:10:47;;;;;;;48.90;29.63;;;;;;;;;;5040955;28;20627;-72
2021/03/10 05:13:52;;;;;;;45.37;29.13;;;;;;;;;;5051059;28;20686;-71
2021/03/10 05:16:56;;;;;;;50.57;29.07;;;;;;;;;;5033052;28;20606;-72
2021/03/10 05:20:01;;;;;;;46.57;29.90;;;;;;;;;;5032614;28;20654;-71
2021/03/10 05:23:05;;;;;;;46.67;29.40;;;;;;;;;;5045380;28;20633;-72
2021/03/10 05:26:10;;;;;;;51.00;28.37;;;;;;;;;;5034231;28;20954;-72
2021/03/10 05:29:14;;;;;;;46.20;29.90;;;;;;;;;;5021208;28;20553;-72
2021/03/10 05:32:18;;;;;;;51.37;30.27;;;;;;;;;;5021205;28;20551;-72
2021/03/10 05:35:22;;;;;;;48.87;29.17;;;;;;;;;;5044405;28;20601;-72
2021/03/10 05:38:27;;;;;;;49.83;29.37;;;;;;;;;;5034438;28;20595;-72
2021/03/10 05:41:31;;;;;;;46.43;29.30;;;;;;;;;;5032916;28;21018;-72
2021/03/10 05:44:35;;;;;;;51.50;30.77;;;;;;;;;;5027203;28;20625;-72
2021/03/10 05:47:39;;;;;;;45.80;29.00;;;;;;;;;;5052950;28;20610;-72
2021/03/10 05:50:44;;;;;;;48.70;30.17;;;;;;;;;;5028829;28;20659;-71
2021/03/10 05:53:49;;;;;;;50.30;31.07;;;;;;;;;;5033359;28;21077;-72
2021/03/10 05:56:54;;;;;;;51.77;29.80;;;;;;;;;;5047112;28;20957;-72
2021/03/10 05:59:58;;;;;;;48.47;29.03;;;;;;;;;;5048326;28;20653;-71
2021/03/10 06:03:04;;;;;;;46.17;29.93;;;;;;;;;;5037884;28;20679;-72
2021/03/10 06:06:08;;;;;;;51.27;30.43;;;;;;;;;;5044596;28;20626;-72
2021/03/10 06:09:16;;;;;;;52.77;31.23;;;;;;;;;;5032867;28;20610;-72
2021/03/10 06:12:20;;;;;;;48.03;29.80;;;;;;;;;;5032879;28;20619;-72
2021/03/10 06:15:24;;;;;;;51.43;31.77;;;;;;;;;;5032912;28;20947;-72
2021/03/10 06:18:34;;;;;;;49.83;31.03;;;;;;;;;;5035386;28;20600;-72
2021/03/10 06:21:51;;;;;;;51.93;30.13;;;;;;;;;;5020419;28;21018;-71
2021/03/10 06:25:00;;;;;;;47.67;29.77;;;;;;;;;;5032558;28;21176;-72
2021/03/10 06:28:05;;;;;;;48.87;30.17;;;;;;;;;;5035401;28;21148;-72
2021/03/10 06:31:17;;;;;;;47.57;28.50;;;;;;;;;;5042363;28;20666;-71
2021/03/10 06:34:21;;;;;;;46.07;28.30;;;;;;;;;;5049355;28;20586;-72
2021/03/10 06:37:30;;;;;;;46.60;29.57;;;;;;;;;;5024160;28;20599;-72
2021/03/10 06:40:45;;;;;;;46.83;28.73;;;;;;;;;;5032388;28;20634;-72
2021/03/10 06:43:50;;;;;;;47.37;28.80;;;;;;;;;;5032380;28;20596;-72
2021/03/10 06:47:12;;;;;;;48.90;28.47;;;;;;;;;;5033171;28;20618;-72
2021/03/10 06:50:16;;;;;;;50.47;29.53;;;;;;;;;;5055987;28;20617;-72
2021/03/10 06:53:31;;;;;;;47.50;28.77;;;;;;;;;;5055820;28;20550;-72
2021/03/10 06:56:36;;;;;;;48.90;31.07;;;;;;;;;;5043643;28;20957;-72
2021/03/10 06:59:44;;;;;;;44.03;28.47;;;;;;;;;;5055108;28;20632;-72
2021/03/10 07:02:48;;;;;;;46.90;28.30;;;;;;;;;;5046429;28;20581;-72
2021/03/10 07:05:54;;;;;;;46.00;28.90;;;;;;;;;;5043526;28;20544;-72
2021/03/10 07:08:58;;;;;;;49.10;29.97;;;;;;;;;;5055662;28;20921;-72
2021/03/10 07:12:03;;;;;;;50.10;29.47;;;;;;;;;;5043377;28;20550;-72
2021/03/10 07:15:08;;;;;;;49.20;30.10;;;;;;;;;;5055588;28;21093;-72
2021/03/10 07:18:13;;;;;;;48.77;29.47;;;;;;;;;;5055233;28;20613;-72
2021/03/10 07:21:26;;;;;;;44.80;28.63;;;;;;;;;;5055162;28;20648;-72
2021/03/10 07:24:49;;;;;;;45.93;27.43;;;;;;;;;;5055217;28;20609;-72
2021/03/10 07:28:10;;;;;;;45.17;28.40;;;;;;;;;;5055725;28;20542;-72
2021/03/10 07:31:20;;;;;;;43.73;26.77;;;;;;;;;;5042710;28;20625;-72
2021/03/10 07:34:25;;;;;;;44.50;26.80;;;;;;;;;;5055100;28;20555;-72
2021/03/10 07:37:30;;;;;;;44.47;28.00;;;;;;;;;;5054976;28;20543;-72
2021/03/10 07:40:34;;;;;;;45.23;27.40;;;;;;;;;;5054866;28;20618;-72
2021/03/10 07:43:39;;;;;;;43.97;27.50;;;;;;;;;;5055034;28;21121;-72
2021/03/10 07:46:45;;;;;;;46.63;28.20;;;;;;;;;;5050004;28;20635;-72
2021/03/10 07:50:00;;;;;;;47.07;28.93;;;;;;;;;;5051915;28;20584;-72
2021/03/10 07:53:05;;;;;;;43.00;26.70;;;;;;;;;;5042687;28;20547;-72
2021/03/10 07:56:09;;;;;;;46.50;28.57;;;;;;;;;;5054558;28;20597;-72
2021/03/10 07:59:19;;;;;;;48.80;27.63;;;;;;;;;;5041845;28;20552;-72
2021/03/10 08:02:24;;;;;;;43.13;25.83;;;;;;;;;;5054422;28;20603;-72
2021/03/10 08:05:29;;;;;;;46.97;25.87;;;;;;;;;;5054309;28;20661;-72
2021/03/10 08:08:35;;;;;;;47.90;26.43;;;;;;;;;;5054654;28;20552;-72
2021/03/10 08:11:43;;;;;;;45.70;27.90;;;;;;;;;;5042232;28;20650;-72
2021/03/10 08:14:48;;;;;;;43.60;27.50;;;;;;;;;;5047852;28;20591;-72
2021/03/10 08:18:02;;;;;;;43.70;26.60;;;;;;;;;;5010865;28;21107;-72
2021/03/10 08:21:16;;;;;;;48.87;27.33;;;;;;;;;;5039516;28;20643;-72
2021/03/10 08:24:22;;;;;;;43.70;26.17;;;;;;;;;;5029125;28;21231;-72
2021/03/10 08:27:31;;;;;;;43.93;26.87;;;;;;;;;;5048650;28;20598;-72
2021/03/10 08:30:36;;;;;;;42.00;26.47;;;;;;;;;;5032455;28;20645;-72
2021/03/10 08:33:51;;;;;;;40.63;25.73;;;;;;;;;;5044650;28;20621;-72
2021/03/10 08:36:56;;;;;;;45.10;27.50;;;;;;;;;;5022342;28;20890;-72
2021/03/10 08:40:00;;;;;;;42.80;26.93;;;;;;;;;;5050294;28;20641;-72
2021/03/10 08:43:04;;;;;;;53.20;31.77;;;;;;;;;;5047668;28;20607;-72
2021/03/10 08:46:08;;;;;;;49.13;27.80;;;;;;;;;;5034750;28;20628;-72
2021/03/10 08:49:21;;;;;;;44.47;26.53;;;;;;;;;;5046880;28;20952;-72
2021/03/10 08:52:27;;;;;;;43.50;25.57;;;;;;;;;;5052284;28;20688;-72
2021/03/10 08:55:35;;;;;;;42.47;26.03;;;;;;;;;;5039653;28;20199;-72
2021/03/10 08:58:39;;;;;;;48.30;26.00;;;;;;;;;;5040147;28;20206;-72
2021/03/10 09:01:51;;;;;;;42.17;25.40;;;;;;;;;;5041399;28;20227;-72
2021/03/10 09:04:56;;;;;;;42.00;26.90;;;;;;;;;;5048020;28;20224;-72
2021/03/10 09:08:01;;;;;;;46.67;28.17;;;;;;;;;;5021623;28;20194;-72
2021/03/10 09:11:07;;;;;;;43.93;27.60;;;;;;;;;;5024390;28;20746;-72
2021/03/10 09:14:33;;;;;;;43.57;25.90;;;;;;;;;;5047831;28;20195;-72
2021/03/10 09:17:40;;;;;;;41.40;24.40;;;;;;;;;;5040926;28;20203;-72
2021/03/10 09:20:49;;;;;;;41.63;25.53;;;;;;;;;;5021218;28;20568;-73
2021/03/10 09:24:00;;;;;;;39.80;25.00;;;;;;;;;;5021268;28;20193;-73
2021/03/10 09:27:21;;;;;;;39.37;24.07;;;;;;;;;;5033051;28;20220;-72
2021/03/10 09:30:30;;;;;;;38.03;23.93;;;;;;;;;;5022147;28;20224;-72
2021/03/10 09:33:40;;;;;;;38.17;23.87;;;;;;;;;;5022540;28;20195;-72
2021/03/10 09:36:46;;;;;;;49.23;34.33;;;;;;;;;;5039995;28;20195;-72
2021/03/10 09:39:58;;;;;;;41.30;26.97;;;;;;;;;;5052760;28;20230;-72
2021/03/10 09:43:17;;;;;;;36.67;23.60;;;;;;;;;;5039856;28;20203;-72
2021/03/10 09:46:22;;;;;;;37.93;24.70;;;;;;;;;;5034422;28;20575;-72
2021/03/10 09:49:27;;;;;;;32.77;22.07;;;;;;;;;;5020829;28;20537;-72
2021/03/10 09:52:39;;;;;;;38.30;24.00;;;;;;;;;;5020974;28;20186;-72
2021/03/10 09:55:50;;;;;;;37.30;23.37;;;;;;;;;;5028046;28;20193;-72
2021/03/10 09:59:00;;;;;;;37.27;26.03;;;;;;;;;;5029709;28;20200;-73
2021/03/10 10:02:14;;;;;;;37.23;22.80;;;;;;;;;;5040711;28;20191;-72
2021/03/10 10:05:21;;;;;;;33.60;21.33;;;;;;;;;;5034206;28;20232;-72
2021/03/10 10:08:25;;;;;;;34.60;21.97;;;;;;;;;;5020861;28;20193;-72
2021/03/10 10:11:30;;;;;;;34.13;22.23;;;;;;;;;;5033035;28;20226;-70
2021/03/10 10:14:35;;;;;;;30.53;21.00;;;;;;;;;;5029374;28;20180;-74
2021/03/10 10:17:48;;;;;;;33.63;20.27;;;;;;;;;;5032083;28;20665;-74
2021/03/10 10:20:53;;;;;;;30.93;19.73;;;;;;;;;;5021814;28;20228;-74
2021/03/10 10:24:02;;;;;;;28.53;18.90;;;;;;;;;;5043448;28;20205;-74
2021/03/10 10:27:08;;;;;;;34.03;20.47;;;;;;;;;;5024507;28;20186;-74
2021/03/10 10:30:20;;;;;;;31.30;20.87;;;;;;;;;;5024250;28;20709;-74
2021/03/10 10:33:27;;;;;;;67.00;41.17;;;;;;;;;;5039171;28;20207;-74
2021/03/10 10:36:32;;;;;;;30.30;20.30;;;;;;;;;;5041924;28;20199;-74
2021/03/10 10:39:37;;;;;;;31.53;19.03;;;;;;;;;;5038843;28;20196;-74
2021/03/10 10:42:42;;;;;;;34.90;21.43;;;;;;;;;;5023890;28;20188;-74
2021/03/10 10:45:46;;;;;;;27.50;19.00;;;;;;;;;;5033413;28;20597;-74
2021/03/10 10:48:57;;;;;;;26.57;16.73;;;;;;;;;;5024526;28;20189;-74
2021/03/10 10:52:11;;;;;;;29.33;17.67;;;;;;;;;;5023930;28;20192;-73
2021/03/10 10:55:19;;;;;;;33.30;20.57;;;;;;;;;;5036252;28;20662;-73
2021/03/10 10:58:27;;;;;;;30.60;19.03;;;;;;;;;;5042691;28;20215;-74
2021/03/10 11:01:32;;;;;;;26.00;16.30;;;;;;;;;;5043808;28;20237;-73
2021/03/10 11:04:36;;;;;;;23.37;15.60;;;;;;;;;;5031877;28;20678;-73
2021/03/10 11:07:40;;;;;;;28.47;15.67;;;;;;;;;;5030578;28;20543;-74
2021/03/10 11:10:46;;;;;;;23.73;15.50;;;;;;;;;;5042987;28;20212;-73
2021/03/10 11:13:50;;;;;;;22.53;13.43;;;;;;;;;;5078800;22;20305;-74
2021/03/10 11:17:03;;;;;;;23.17;13.93;;;;;;;;;;5046210;28;20199;-74
2021/03/10 11:20:15;;;;;;;24.13;14.97;;;;;;;;;;5033021;28;20223;-75
2021/03/10 11:23:20;;;;;;;25.33;16.20;;;;;;;;;;5067939;28;20183;-75
2021/03/10 11:26:24;;;;;;;25.37;15.40;;;;;;;;;;5074480;28;20211;-74
2021/03/10 11:29:30;;;;;;;24.20;15.53;;;;;;;;;;5051733;28;20627;-74
2021/03/10 11:32:35;;;;;;;30.10;18.03;;;;;;;;;;5062335;28;20538;-74
2021/03/10 11:35:40;;;;;;;25.90;14.87;;;;;;;;;;5060905;28;20204;-74
2021/03/10 11:38:44;;;;;;;23.13;14.20;;;;;;;;;;5046305;28;20531;-74
2021/03/10 11:41:49;;;;;;;23.63;13.97;;;;;;;;;;5048334;28;20215;-74
2021/03/10 11:44:54;;;;;;;23.40;14.43;;;;;;;;;;5051420;28;20184;-73
2021/03/10 11:47:59;;;;;;;27.70;15.83;;;;;;;;;;5074672;28;20190;-73
2021/03/10 11:51:04;;;;;;;27.73;14.77;;;;;;;;;;5043156;28;20234;-73
2021/03/10 11:54:08;;;;;;;21.50;13.87;;;;;;;;;;5065050;28;20566;-73
2021/03/10 11:57:14;;;;;;;23.53;14.60;;;;;;;;;;5055002;28;20193;-74
2021/03/10 12:00:18;;;;;;;23.37;14.27;;;;;;;;;;5042377;28;20216;-74
2021/03/10 12:03:30;;;;;;;20.57;13.20;;;;;;;;;;5043271;28;20195;-74
2021/03/10 12:06:43;;;;;;;24.90;14.53;;;;;;;;;;5042232;28;20580;-74
2021/03/10 12:09:47;;;;;;;23.17;15.43;;;;;;;;;;5041889;28;20678;-74
2021/03/10 12:12:51;;;;;;;28.03;16.97;;;;;;;;;;5054261;28;20204;-74
2021/03/10 12:15:57;;;;;;;24.67;16.33;;;;;;;;;;5068599;28;20190;-75
2021/03/10 12:19:01;;;;;;;26.97;17.73;;;;;;;;;;5064499;28;20269;-75
2021/03/10 12:22:06;;;;;;;27.50;17.87;;;;;;;;;;5062282;28;20190;-75
2021/03/10 12:25:11;;;;;;;26.77;16.63;;;;;;;;;;5073907;28;20194;-75
2021/03/10 12:28:15;;;;;;;23.80;15.60;;;;;;;;;;5075873;28;20188;-75
2021/03/10 12:31:19;;;;;;;26.23;16.73;;;;;;;;;;5072092;28;20223;-75
2021/03/10 12:34:23;;;;;;;26.07;17.40;;;;;;;;;;5048679;28;20198;-72
2021/03/10 12:37:27;;;;;;;22.77;15.43;;;;;;;;;;5074053;28;20526;-72
2021/03/10 12:40:31;;;;;;;23.50;15.97;;;;;;;;;;5049476;28;20226;-73
2021/03/10 12:43:36;;;;;;;23.50;16.37;;;;;;;;;;5064145;28;20194;-73
2021/03/10 12:46:40;;;;;;;21.67;13.90;;;;;;;;;;5041718;28;20219;-72
2021/03/10 12:49:45;;;;;;;21.73;14.40;;;;;;;;;;5053348;28;20198;-73
2021/03/10 12:52:49;;;;;;;23.37;16.20;;;;;;;;;;5054142;28;20203;-73
2021/03/10 12:55:54;;;;;;;20.87;14.67;;;;;;;;;;5069484;28;20218;-73
2021/03/10 12:58:58;;;;;;;21.43;14.23;;;;;;;;;;5070837;28;20214;-74
2021/03/10 13:02:04;;;;;;;21.20;14.83;;;;;;;;;;5066452;28;20226;-73
2021/03/10 13:05:09;;;;;;;35.80;23.30;;;;;;;;;;5063823;28;20203;-72
2021/03/10 13:08:14;;;;;;;21.43;15.47;;;;;;;;;;5061322;28;20191;-74
2021/03/10 13:11:18;;;;;;;21.27;14.20;;;;;;;;;;5058548;28;20222;-73
2021/03/10 13:14:22;;;;;;;23.47;15.17;;;;;;;;;;5059192;28;20708;-74
2021/03/10 13:17:26;;;;;;;21.57;14.43;;;;;;;;;;5040960;28;20198;-74
2021/03/10 13:20:31;;;;;;;20.27;13.70;;;;;;;;;;5048217;28;20746;-74
2021/03/10 13:23:35;;;;;;;21.47;14.63;;;;;;;;;;5053673;28;20542;-74
2021/03/10 13:26:41;;;;;;;23.70;16.40;;;;;;;;;;5061046;28;20210;-74
2021/03/10 13:29:45;;;;;;;20.40;14.00;;;;;;;;;;5053813;28;20203;-74
2021/03/10 13:32:49;;;;;;;19.57;13.53;;;;;;;;;;5073092;28;20681;-73
2021/03/10 13:35:53;;;;;;;22.30;14.13;;;;;;;;;;5058418;28;20641;-74
2021/03/10 13:38:57;;;;;;;19.03;12.87;;;;;;;;;;5054685;28;20202;-74
2021/03/10 13:42:02;;;;;;;18.10;13.07;;;;;;;;;;5065281;28;20234;-73
2021/03/10 13:45:07;;;;;;;22.50;14.33;;;;;;;;;;5041047;28;20188;-74
2021/03/10 13:48:11;;;;;;;29.70;19.60;;;;;;;;;;5059580;28;20192;-72
2021/03/10 13:51:15;;;;;;;25.80;15.43;;;;;;;;;;5061020;28;20221;-74
2021/03/10 13:54:19;;;;;;;50.20;29.57;;;;;;;;;;5052841;28;20211;-73
2021/03/10 13:57:23;;;;;;;44.03;27.07;;;;;;;;;;5054317;28;20187;-73
2021/03/10 14:00:28;;;;;;;27.57;18.33;;;;;;;;;;5056720;28;20223;-73
2021/03/10 14:03:32;;;;;;;24.57;15.37;;;;;;;;;;5044260;28;20187;-73
2021/03/10 14:06:36;;;;;;;24.97;16.00;;;;;;;;;;5056958;28;20208;-73
2021/03/10 14:09:41;;;;;;;26.17;19.47;;;;;;;;;;5069803;28;20218;-72
2021/03/10 14:12:46;;;;;;;22.37;15.80;;;;;;;;;;5056702;28;20207;-72
2021/03/10 14:15:51;;;;;;;23.13;13.97;;;;;;;;;;5074299;28;20202;-73
2021/03/10 14:18:55;;;;;;;23.10;15.87;;;;;;;;;;5076863;28;20188;-76
2021/03/10 14:21:59;;;;;;;23.47;15.07;;;;;;;;;;5064173;28;20656;-76
2021/03/10 14:25:04;;;;;;;23.13;15.27;;;;;;;;;;5056767;28;20211;-76
2021/03/10 14:28:09;;;;;;;20.93;14.50;;;;;;;;;;5056926;28;20184;-76
2021/03/10 14:31:13;;;;;;;24.50;15.63;;;;;;;;;;5044037;28;20238;-76
2021/03/10 14:34:17;;;;;;;26.37;17.20;;;;;;;;;;5044275;28;20188;-76
2021/03/10 14:37:21;;;;;;;25.80;16.53;;;;;;;;;;5044164;28;20671;-76
2021/03/10 14:40:25;;;;;;;23.33;16.47;;;;;;;;;;5043889;28;20227;-76
2021/03/10 14:43:30;;;;;;;22.70;15.07;;;;;;;;;;5056299;28;20176;-75
2021/03/10 14:46:35;;;;;;;26.07;15.97;;;;;;;;;;5044015;28;20219;-76
2021/03/10 14:49:39;;;;;;;22.93;15.77;;;;;;;;;;5056256;28;20185;-76
2021/03/10 14:52:43;;;;;;;23.77;15.30;;;;;;;;;;5056145;28;20176;-75
2021/03/10 14:55:47;;;;;;;22.60;15.60;;;;;;;;;;5043686;28;20180;-76
2021/03/10 14:58:51;;;;;;;21.77;14.30;;;;;;;;;;5056152;28;20641;-76
2021/03/10 15:01:55;;;;;;;20.97;14.47;;;;;;;;;;5043748;28;20222;-75
2021/03/10 15:04:59;;;;;;;28.10;16.80;;;;;;;;;;5055666;28;20203;-75
2021/03/10 15:08:03;;;;;;;26.97;16.37;;;;;;;;;;5054649;28;20579;-76
2021/03/10 15:11:08;;;;;;;24.73;16.00;;;;;;;;;;5043463;28;20227;-75
2021/03/10 15:14:12;;;;;;;20.80;13.57;;;;;;;;;;5055602;28;20711;-76
2021/03/10 15:17:17;;;;;;;23.70;14.87;;;;;;;;;;5043611;28;20650;-75
2021/03/10 15:20:21;;;;;;;23.77;14.87;;;;;;;;;;5055569;28;20219;-75
2021/03/10 15:23:26;;;;;;;31.10;17.17;;;;;;;;;;5055496;28;20540;-76
2021/03/10 15:26:30;;;;;;;23.37;15.30;;;;;;;;;;5043012;28;20208;-75
2021/03/10 15:29:37;;;;;;;23.80;15.17;;;;;;;;;;5043034;28;20538;-75
2021/03/10 15:32:43;;;;;;;24.30;15.40;;;;;;;;;;5055481;28;20675;-75
2021/03/10 15:35:47;;;;;;;22.17;13.47;;;;;;;;;;5055188;28;20199;-76
2021/03/10 15:38:51;;;;;;;18.73;12.93;;;;;;;;;;5031785;28;20189;-76
2021/03/10 15:41:56;;;;;;;18.60;12.53;;;;;;;;;;5055199;28;20231;-76
2021/03/10 15:45:00;;;;;;;20.20;12.07;;;;;;;;;;5055211;28;20536;-75
2021/03/10 15:48:07;;;;;;;21.63;13.07;;;;;;;;;;5067522;28;20214;-75
2021/03/10 15:51:11;;;;;;;18.43;12.13;;;;;;;;;;5061354;28;20593;-76
2021/03/10 15:54:15;;;;;;;20.03;13.20;;;;;;;;;;5050928;28;20190;-75
2021/03/10 15:57:19;;;;;;;17.13;12.07;;;;;;;;;;5058611;28;20666;-75
2021/03/10 16:00:24;;;;;;;23.00;12.63;;;;;;;;;;5065470;28;20243;-75
2021/03/10 16:03:28;;;;;;;20.17;11.97;;;;;;;;;;5049426;28;20179;-75
2021/03/10 16:06:33;;;;;;;18.73;13.33;;;;;;;;;;5058745;28;20234;-75
2021/03/10 16:09:37;;;;;;;21.90;13.33;;;;;;;;;;5073950;28;20202;-75
2021/03/10 16:12:41;;;;;;;19.67;12.80;;;;;;;;;;5059239;28;20204;-76
2021/03/10 16:15:46;;;;;;;29.07;13.87;;;;;;;;;;5065002;28;20199;-76
2021/03/10 16:18:50;;;;;;;20.43;12.63;;;;;;;;;;5068893;28;20191;-75
2021/03/10 16:21:57;;;;;;;20.53;11.70;;;;;;;;;;5050579;28;20222;-75
2021/03/10 16:25:01;;;;;;;22.27;14.17;;;;;;;;;;5056805;28;20195;-75
2021/03/10 16:28:05;;;;;;;22.57;15.67;;;;;;;;;;5043900;28;20220;-75
2021/03/10 16:31:10;;;;;;;21.03;12.97;;;;;;;;;;5058658;28;20232;-75
2021/03/10 16:34:14;;;;;;;21.17;12.87;;;;;;;;;;5042053;28;20184;-74
2021/03/10 16:37:19;;;;;;;19.60;12.40;;;;;;;;;;5053973;28;20181;-75
2021/03/10 16:40:23;;;;;;;21.07;12.53;;;;;;;;;;5064125;28;20226;-74
2021/03/10 16:43:28;;;;;;;20.80;12.00;;;;;;;;;;5035175;28;20207;-76
2021/03/10 16:46:33;;;;;;;18.67;12.23;;;;;;;;;;5056000;28;20185;-74
2021/03/10 16:49:39;;;;;;;18.73;12.03;;;;;;;;;;5064254;28;20184;-75
2021/03/10 16:52:43;;;;;;;19.10;13.07;;;;;;;;;;5056000;28;20191;-75
2021/03/10 16:55:47;;;;;;;17.70;11.77;;;;;;;;;;5049866;28;20199;-75
2021/03/10 16:58:51;;;;;;;18.00;12.07;;;;;;;;;;5041452;28;20187;-75
2021/03/10 17:01:56;;;;;;;20.17;12.47;;;;;;;;;;5053593;28;20718;-75
2021/03/10 17:05:01;;;;;;;18.50;11.57;;;;;;;;;;5048858;28;20192;-75
2021/03/10 17:08:06;;;;;;;19.23;12.17;;;;;;;;;;5048555;28;20222;-75
2021/03/10 17:11:10;;;;;;;19.07;12.20;;;;;;;;;;5060799;28;20594;-75
2021/03/10 17:14:14;;;;;;;19.47;12.60;;;;;;;;;;5029644;28;20218;-74
2021/03/10 17:17:18;;;;;;;22.30;12.87;;;;;;;;;;5053108;28;20189;-74
2021/03/10 17:20:22;;;;;;;19.10;12.57;;;;;;;;;;5068497;28;20223;-76
2021/03/10 17:23:26;;;;;;;21.63;13.40;;;;;;;;;;5041201;28;20184;-75
2021/03/10 17:26:31;;;;;;;18.93;12.10;;;;;;;;;;5040930;28;20195;-74
2021/03/10 17:29:36;;;;;;;20.97;12.90;;;;;;;;;;5042226;28;20199;-75
2021/03/10 17:32:40;;;;;;;22.90;13.67;;;;;;;;;;5068441;28;20191;-75
2021/03/10 17:35:45;;;;;;;21.83;13.70;;;;;;;;;;5040621;28;20192;-75
2021/03/10 17:38:49;;;;;;;23.70;14.60;;;;;;;;;;5053038;28;20548;-75
2021/03/10 17:41:53;;;;;;;23.30;13.57;;;;;;;;;;5041594;28;20226;-75
2021/03/10 17:44:57;;;;;;;21.83;14.27;;;;;;;;;;5040462;28;20613;-75
2021/03/10 17:48:01;;;;;;;24.70;13.63;;;;;;;;;;5040672;28;20656;-75
2021/03/10 17:51:06;;;;;;;23.43;14.27;;;;;;;;;;5052660;28;20649;-75
2021/03/10 17:54:10;;;;;;;25.30;13.93;;;;;;;;;;5055186;28;20598;-75
2021/03/10 17:57:15;;;;;;;25.23;14.17;;;;;;;;;;5029379;28;20534;-75
2021/03/10 18:00:20;;;;;;;30.50;16.73;;;;;;;;;;5052916;28;20625;-75
2021/03/10 18:03:24;;;;;;;25.83;15.57;;;;;;;;;;5047428;28;20969;-75
2021/03/10 18:06:28;;;;;;;25.47;15.43;;;;;;;;;;5053179;28;20886;-75
2021/03/10 18:09:32;;;;;;;27.37;15.70;;;;;;;;;;5040105;28;21244;-76
2021/03/10 18:12:37;;;;;;;24.83;15.10;;;;;;;;;;5040242;28;20617;-75
2021/03/10 18:15:42;;;;;;;27.90;15.63;;;;;;;;;;5052237;28;20960;-75
2021/03/10 18:18:46;;;;;;;24.80;15.13;;;;;;;;;;5060164;28;20561;-74